createdAt,value
2023-04-18T00:00:46.447Z,11.65
2023-04-18T00:03:16.482Z,14.60
2023-04-18T00:05:48.342Z,13.45
2023-04-18T00:08:15.852Z,12.65
2023-04-18T00:10:42.846Z,11.95
2023-04-18T00:13:10.370Z,12.23
2023-04-18T00:15:37.350Z,13.27
2023-04-18T00:18:06.380Z,13.88
2023-04-18T00:20:33.618Z,13.30
2023-04-18T00:23:00.988Z,11.40
2023-04-18T00:25:28.208Z,13.35
2023-04-18T00:27:55.200Z,12.43
2023-04-18T00:30:22.292Z,11.85
2023-04-18T00:32:49.456Z,14.35
2023-04-18T00:35:16.481Z,12.95
2023-04-18T00:37:43.698Z,11.65
2023-04-18T00:40:11.252Z,12.07
2023-04-18T00:42:38.358Z,13.93
2023-04-18T00:45:06.094Z,12.48
2023-04-18T00:47:33.235Z,12.25
2023-04-18T00:50:00.589Z,14.80
2023-04-18T00:52:28.051Z,14.60
2023-04-18T00:54:55.791Z,15.05
2023-04-18T00:57:22.910Z,11.93
2023-04-18T00:59:50.480Z,14.18
2023-04-18T01:02:17.773Z,14.80
2023-04-18T01:04:44.922Z,17.48
2023-04-18T01:07:12.125Z,12.73
2023-04-18T01:09:39.942Z,16.25
2023-04-18T01:12:07.031Z,13.75
2023-04-18T01:14:33.960Z,18.05
2023-04-18T01:17:01.796Z,16.20
2023-04-18T01:19:28.920Z,16.45
2023-04-18T01:21:55.971Z,16.37
2023-04-18T01:24:24.811Z,15.10
2023-04-18T01:26:51.823Z,13.00
2023-04-18T01:29:18.760Z,14.63
2023-04-18T01:31:46.217Z,14.68
2023-04-18T01:34:13.619Z,13.95
2023-04-18T01:36:41.338Z,12.10
2023-04-18T01:39:08.498Z,16.08
2023-04-18T01:41:35.590Z,13.35
2023-04-18T01:44:02.789Z,17.17
2023-04-18T01:46:29.969Z,15.43
2023-04-18T01:48:57.886Z,16.90
2023-04-18T01:51:25.293Z,15.00
2023-04-18T01:53:52.290Z,15.00
2023-04-18T01:56:19.373Z,17.17
2023-04-18T01:58:46.373Z,15.48
2023-04-18T02:01:13.560Z,15.88
2023-04-18T02:03:41.009Z,16.92
2023-04-18T02:06:08.330Z,15.40
2023-04-18T02:08:36.221Z,15.25
2023-04-18T02:11:03.764Z,17.20
2023-04-18T02:13:31.272Z,15.88
2023-04-18T02:15:58.284Z,16.98
2023-04-18T02:18:26.132Z,14.45
2023-04-18T02:20:53.172Z,15.98
2023-04-18T02:23:20.130Z,14.38
2023-04-18T02:25:47.120Z,15.02
2023-04-18T02:28:14.075Z,16.10
2023-04-18T02:30:41.049Z,17.90
2023-04-18T02:33:08.180Z,15.95
2023-04-18T02:35:37.756Z,18.08
2023-04-18T02:38:04.785Z,18.45
2023-04-18T02:40:31.756Z,15.68
2023-04-18T02:42:58.799Z,15.88
2023-04-18T02:45:25.794Z,16.67
2023-04-18T02:47:55.871Z,14.85
2023-04-18T02:50:24.153Z,16.80
2023-04-18T02:52:51.221Z,16.55
2023-04-18T02:55:18.271Z,16.92
2023-04-18T02:57:45.230Z,19.80
2023-04-18T03:00:13.767Z,21.17
2023-04-18T03:02:41.165Z,15.65
2023-04-18T03:05:08.541Z,18.02
2023-04-18T03:07:35.727Z,17.15
2023-04-18T03:10:02.732Z,17.83
2023-04-18T03:12:29.732Z,16.02
2023-04-18T03:14:56.756Z,20.05
2023-04-18T03:17:23.901Z,17.35
2023-04-18T03:19:50.946Z,18.00
2023-04-18T03:22:18.130Z,17.45
2023-04-18T03:24:45.154Z,19.35
2023-04-18T03:27:13.607Z,16.98
2023-04-18T03:29:40.681Z,18.23
2023-04-18T03:32:07.650Z,19.17
2023-04-18T03:34:34.633Z,17.37
2023-04-18T03:37:01.710Z,18.70
2023-04-18T03:39:28.698Z,16.02
2023-04-18T03:41:55.762Z,15.77
2023-04-18T03:44:22.758Z,17.73
2023-04-18T03:46:49.793Z,22.25
2023-04-18T03:49:16.748Z,20.58
2023-04-18T03:51:48.087Z,18.90
2023-04-18T03:54:17.961Z,17.35
2023-04-18T03:59:12.295Z,17.60
2023-04-18T04:01:39.451Z,17.60
2023-04-18T04:04:06.854Z,17.70
2023-04-18T04:06:33.940Z,19.40
2023-04-18T04:09:01.294Z,18.02
2023-04-18T04:11:28.403Z,16.48
2023-04-18T04:13:55.521Z,18.60
2023-04-18T04:16:22.751Z,17.25
2023-04-18T04:18:49.778Z,19.52
2023-04-18T04:21:18.425Z,18.65
2023-04-18T04:23:46.508Z,14.85
2023-04-18T04:26:15.267Z,20.27
2023-04-18T04:28:43.228Z,18.73
2023-04-18T04:31:10.684Z,17.58
2023-04-18T04:33:39.251Z,18.17
2023-04-18T04:36:09.386Z,20.60
2023-04-18T04:38:38.595Z,16.40
2023-04-18T04:41:08.017Z,18.30
2023-04-18T04:43:35.101Z,18.65
2023-04-18T04:46:04.654Z,18.50
2023-04-18T04:48:31.755Z,20.05
2023-04-18T04:51:00.932Z,18.37
2023-04-18T04:53:32.482Z,19.67
2023-04-18T04:55:59.613Z,19.25
2023-04-18T04:58:26.803Z,19.65
2023-04-18T05:00:54.057Z,20.98
2023-04-18T05:03:21.276Z,17.77
2023-04-18T05:05:48.856Z,19.92
2023-04-18T05:08:15.973Z,19.98
2023-04-18T05:10:43.582Z,20.60
2023-04-18T05:13:10.625Z,18.50
2023-04-18T05:15:37.734Z,17.92
2023-04-18T05:18:05.135Z,19.98
2023-04-18T05:20:32.284Z,18.75
2023-04-18T05:22:59.357Z,19.90
2023-04-18T05:25:27.184Z,20.75
2023-04-18T05:27:54.171Z,18.87
2023-04-18T05:30:21.514Z,20.25
2023-04-18T05:32:48.639Z,19.00
2023-04-18T05:35:15.790Z,19.37
2023-04-18T05:37:42.834Z,20.60
2023-04-18T05:40:10.586Z,18.52
2023-04-18T05:42:37.747Z,22.23
2023-04-18T05:45:05.179Z,19.17
2023-04-18T05:47:33.889Z,19.90
2023-04-18T05:50:01.177Z,17.85
2023-04-18T05:52:28.225Z,17.70
2023-04-18T05:54:55.169Z,18.08
2023-04-18T05:57:22.289Z,22.08
2023-04-18T05:59:49.269Z,19.77
2023-04-18T06:02:16.305Z,18.60
2023-04-18T06:04:43.667Z,23.92
2023-04-18T06:07:10.998Z,23.70
2023-04-18T06:09:38.036Z,18.35
2023-04-18T06:12:05.313Z,23.08
2023-04-18T06:14:32.581Z,22.35
2023-04-18T06:16:59.851Z,26.17
2023-04-18T06:19:26.993Z,18.08
2023-04-18T06:21:54.183Z,16.87
2023-04-18T06:24:21.275Z,19.73
2023-04-18T06:26:48.337Z,18.45
2023-04-18T06:29:15.591Z,15.98
2023-04-18T06:31:45.715Z,15.48
2023-04-18T06:34:13.449Z,16.12
2023-04-18T06:36:40.710Z,16.20
2023-04-18T06:39:07.775Z,16.10
2023-04-18T06:41:35.024Z,13.27
2023-04-18T06:44:03.406Z,15.05
2023-04-18T06:46:32.511Z,14.48
2023-04-18T06:49:00.033Z,16.15
2023-04-18T06:51:27.729Z,15.45
2023-04-18T06:53:54.862Z,14.43
2023-04-18T06:56:22.588Z,13.62
2023-04-18T06:58:50.453Z,13.75
2023-04-18T07:01:17.598Z,15.00
2023-04-18T07:03:44.855Z,14.27
2023-04-18T07:06:12.094Z,14.20
2023-04-18T07:08:39.227Z,14.00
2023-04-18T07:11:07.048Z,14.75
2023-04-18T07:13:34.087Z,14.70
2023-04-18T07:16:01.786Z,17.37
2023-04-18T07:18:37.469Z,15.10
2023-04-18T07:21:09.147Z,16.70
2023-04-18T07:23:36.299Z,12.93
2023-04-18T07:26:03.911Z,15.32
2023-04-18T07:28:32.575Z,15.32
2023-04-18T07:30:59.840Z,19.35
2023-04-18T07:33:27.139Z,14.30
2023-04-18T07:35:54.240Z,15.02
2023-04-18T07:38:21.320Z,18.75
2023-04-18T07:40:57.530Z,22.62
2023-04-18T07:43:24.815Z,18.92
2023-04-18T07:45:52.807Z,20.90
2023-04-18T07:48:22.902Z,22.87
2023-04-18T07:50:50.026Z,22.23
2023-04-18T07:53:17.307Z,18.02
2023-04-18T07:55:44.848Z,17.70
2023-04-18T07:58:11.958Z,17.55
2023-04-18T08:00:39.543Z,19.05
2023-04-18T08:03:11.376Z,15.82
2023-04-18T08:05:39.909Z,16.70
2023-04-18T08:08:08.568Z,16.33
2023-04-18T08:10:36.256Z,17.58
2023-04-18T08:13:03.736Z,14.45
2023-04-18T08:15:33.065Z,13.38
2023-04-18T08:18:01.357Z,18.27
2023-04-18T08:20:28.489Z,15.00
2023-04-18T08:25:25.539Z,16.17
2023-04-18T08:27:52.646Z,13.85
2023-04-18T08:30:19.898Z,13.65
2023-04-18T08:32:47.196Z,12.35
2023-04-18T08:35:14.345Z,14.18
2023-04-18T08:37:43.527Z,15.15
2023-04-18T08:40:11.049Z,12.77
2023-04-18T08:42:39.660Z,15.45
2023-04-18T08:45:07.342Z,15.80
2023-04-18T08:47:36.665Z,19.48
2023-04-18T08:50:05.814Z,17.45
2023-04-18T08:52:34.492Z,16.57
2023-04-18T08:55:03.021Z,17.45
2023-04-18T08:57:31.323Z,17.20
2023-04-18T09:00:01.025Z,14.18
2023-04-18T09:02:47.238Z,13.35
2023-04-18T09:05:19.964Z,13.68
2023-04-18T09:07:48.609Z,14.02
2023-04-18T09:10:36.864Z,14.57
2023-04-18T09:13:04.573Z,13.07
2023-04-18T09:15:31.714Z,13.15
2023-04-18T09:18:02.659Z,15.82
2023-04-18T09:20:42.454Z,11.27
2023-04-18T09:23:11.670Z,11.40
2023-04-18T09:25:45.401Z,12.68
2023-04-18T09:28:33.473Z,13.45
2023-04-18T09:31:22.882Z,12.63
2023-04-18T09:33:57.234Z,14.68
2023-04-18T09:36:28.112Z,15.50
2023-04-18T09:38:57.089Z,12.23
2023-04-18T09:41:24.701Z,9.88
2023-04-18T09:44:11.676Z,9.23
2023-04-18T09:46:41.384Z,11.50
2023-04-18T09:49:10.822Z,15.07
2023-04-18T09:51:40.708Z,11.02
2023-04-18T09:54:11.345Z,11.57
2023-04-18T09:56:44.191Z,10.85
2023-04-18T09:59:12.558Z,11.60
2023-04-18T10:01:45.284Z,11.95
2023-04-18T10:04:13.963Z,14.27
2023-04-18T10:06:42.442Z,11.83
2023-04-18T10:09:10.551Z,11.57
2023-04-18T10:11:37.753Z,10.15
2023-04-18T10:14:12.019Z,11.82
2023-04-18T10:16:39.966Z,9.65
2023-04-18T10:19:30.361Z,11.77
2023-04-18T10:21:59.861Z,10.18
2023-04-18T10:24:46.204Z,12.00
2023-04-18T10:27:13.411Z,10.32
2023-04-18T10:29:51.461Z,9.15
2023-04-18T10:32:23.792Z,12.30
2023-04-18T10:34:53.770Z,11.43
2023-04-18T10:37:20.980Z,8.25
2023-04-18T10:40:00.481Z,12.68
2023-04-18T10:42:46.050Z,11.43
2023-04-18T10:45:24.136Z,9.45
2023-04-18T10:47:51.700Z,11.32
2023-04-18T10:50:18.699Z,9.60
2023-04-18T10:52:45.832Z,8.57
2023-04-18T10:55:19.248Z,10.30
2023-04-18T10:57:48.684Z,9.23
2023-04-18T11:00:18.189Z,10.95
2023-04-18T11:03:00.626Z,9.32
2023-04-18T11:05:29.473Z,7.28
2023-04-18T11:07:56.584Z,6.90
2023-04-18T11:10:26.992Z,7.37
2023-04-18T11:12:56.728Z,7.78
2023-04-18T11:17:58.333Z,6.82
2023-04-18T11:20:25.889Z,5.10
2023-04-18T11:22:56.454Z,6.18
2023-04-18T11:25:38.082Z,6.82
2023-04-18T11:28:06.918Z,5.85
2023-04-18T11:30:39.865Z,7.43
2023-04-18T11:33:14.251Z,7.93
2023-04-18T11:35:43.750Z,5.53
2023-04-18T11:38:13.361Z,5.68
2023-04-18T11:43:08.128Z,5.37
2023-04-18T11:45:35.216Z,4.55
2023-04-18T11:48:02.879Z,5.57
2023-04-18T11:50:37.443Z,6.90
2023-04-18T11:53:04.552Z,9.50
2023-04-18T11:55:31.727Z,9.95
2023-04-18T11:58:00.423Z,10.15
2023-04-18T12:00:34.798Z,8.75
2023-04-18T12:03:04.935Z,6.80
2023-04-18T12:05:34.355Z,10.55
2023-04-18T12:10:36.405Z,6.12
2023-04-18T12:13:08.369Z,8.30
2023-04-18T12:15:39.861Z,8.57
2023-04-18T12:18:10.364Z,6.10
2023-04-18T12:20:54.341Z,6.87
2023-04-18T12:23:36.409Z,7.87
2023-04-18T12:26:06.552Z,8.25
2023-04-18T12:28:35.480Z,9.88
2023-04-18T12:31:03.050Z,7.80
2023-04-18T12:33:31.212Z,8.35
2023-04-18T12:35:58.310Z,7.97
2023-04-18T12:38:25.493Z,7.75
2023-04-18T12:40:52.716Z,9.05
2023-04-18T12:43:20.158Z,8.18
2023-04-18T12:45:47.799Z,7.20
2023-04-18T12:48:14.978Z,10.35
2023-04-18T12:50:42.264Z,8.27
2023-04-18T12:53:09.328Z,5.97
2023-04-18T12:55:38.676Z,7.50
2023-04-18T12:58:05.761Z,8.57
2023-04-18T13:00:33.241Z,9.65
2023-04-18T13:03:01.417Z,10.00
2023-04-18T13:05:32.892Z,8.95
2023-04-18T13:08:12.845Z,7.78
2023-04-18T13:10:44.011Z,6.70
2023-04-18T13:13:11.213Z,6.05
2023-04-18T13:15:42.005Z,8.38
2023-04-18T13:18:13.100Z,5.97
2023-04-18T13:20:41.687Z,6.57
2023-04-18T13:23:08.848Z,5.95
2023-04-18T13:25:36.100Z,9.57
2023-04-18T13:28:03.899Z,5.85
2023-04-18T13:30:32.048Z,5.93
2023-04-18T13:32:59.252Z,5.95
2023-04-18T13:35:26.444Z,4.45
2023-04-18T13:37:53.573Z,3.95
2023-04-18T13:40:20.784Z,4.90
2023-04-18T13:42:48.620Z,5.12
2023-04-18T13:45:15.937Z,8.23
2023-04-18T13:47:43.061Z,6.07
2023-04-18T13:50:10.452Z,5.20
2023-04-18T13:52:37.515Z,4.32
2023-04-18T13:55:05.249Z,5.15
2023-04-18T13:57:34.817Z,6.65
2023-04-18T14:00:01.935Z,6.12
2023-04-18T14:02:29.245Z,6.15
2023-04-18T14:04:58.980Z,6.70
2023-04-18T14:09:55.034Z,5.45
2023-04-18T14:12:22.659Z,4.60
2023-04-18T14:14:49.732Z,5.07
2023-04-18T14:17:16.765Z,5.53
2023-04-18T14:19:43.805Z,5.35
2023-04-18T14:22:11.163Z,6.75
2023-04-18T14:24:38.263Z,4.87
2023-04-18T14:27:05.293Z,6.37
2023-04-18T14:29:32.408Z,7.55
2023-04-18T14:31:59.434Z,5.57
2023-04-18T14:34:26.494Z,6.20
2023-04-18T14:36:53.496Z,4.82
2023-04-18T14:39:20.600Z,5.72
2023-04-18T14:41:47.582Z,4.93
2023-04-18T14:44:14.640Z,5.65
2023-04-18T14:46:42.812Z,6.75
2023-04-18T14:49:09.835Z,10.93
2023-04-18T14:51:36.823Z,10.15
2023-04-18T14:54:06.290Z,6.87
2023-04-18T14:56:33.346Z,7.90
2023-04-18T14:59:00.310Z,5.80
2023-04-18T15:01:27.364Z,6.78
2023-04-18T15:03:54.754Z,6.62
2023-04-18T15:06:23.260Z,9.32
2023-04-18T15:08:50.115Z,8.15
2023-04-18T15:11:17.029Z,9.32
2023-04-18T15:13:44.721Z,6.97
2023-04-18T15:16:11.757Z,8.75
2023-04-18T15:18:38.699Z,9.82
2023-04-18T15:21:05.666Z,10.75
2023-04-18T15:23:34.339Z,12.65
2023-04-18T15:26:01.252Z,11.63
2023-04-18T15:28:28.343Z,10.52
2023-04-18T15:30:55.261Z,10.38
2023-04-18T15:33:24.111Z,14.23
2023-04-18T15:35:51.116Z,10.07
2023-04-18T15:38:18.184Z,11.63
2023-04-18T15:40:45.325Z,11.27
2023-04-18T15:43:13.962Z,11.35
2023-04-18T15:45:41.620Z,12.73
2023-04-18T15:48:08.541Z,12.48
2023-04-18T15:50:36.243Z,12.37
2023-04-18T15:53:03.126Z,16.25
2023-04-18T15:55:30.051Z,12.90
2023-04-18T15:57:57.129Z,16.42
2023-04-18T16:00:24.217Z,12.85
2023-04-18T16:02:51.529Z,13.27
2023-04-18T16:05:22.281Z,12.07
2023-04-18T16:07:49.247Z,14.18
2023-04-18T16:10:16.195Z,12.32
2023-04-18T16:12:44.560Z,15.35
2023-04-18T16:15:12.008Z,16.35
2023-04-18T16:17:39.124Z,13.98
2023-04-18T16:20:08.586Z,13.55
2023-04-18T16:22:35.814Z,12.65
2023-04-18T16:25:04.062Z,16.83
2023-04-18T16:27:30.970Z,17.70
2023-04-18T16:29:57.939Z,14.27
2023-04-18T16:32:26.976Z,17.80
2023-04-18T16:34:56.051Z,17.45
2023-04-18T16:37:22.933Z,16.40
2023-04-18T16:39:49.858Z,15.23
2023-04-18T16:42:17.170Z,17.83
2023-04-18T16:44:45.567Z,18.62
2023-04-18T16:47:12.500Z,19.55
2023-04-18T16:49:40.302Z,14.75
2023-04-18T16:52:07.325Z,19.10
2023-04-18T16:54:34.334Z,19.60
2023-04-18T16:57:03.943Z,19.50
2023-04-18T16:59:33.125Z,20.75
2023-04-18T17:02:00.234Z,19.77
2023-04-18T17:04:27.646Z,21.40
2023-04-18T17:06:54.836Z,23.27
2023-04-18T17:09:21.763Z,18.95
2023-04-18T17:11:49.631Z,16.58
2023-04-18T17:14:17.638Z,14.40
2023-04-18T17:16:46.718Z,15.55
2023-04-18T17:19:13.980Z,14.45
2023-04-18T17:21:43.350Z,11.90
2023-04-18T17:24:10.284Z,13.70
2023-04-18T17:26:39.170Z,8.68
2023-04-18T17:29:06.159Z,6.60
2023-04-18T17:31:33.410Z,5.87
2023-04-18T17:34:02.984Z,6.40
2023-04-18T17:36:30.113Z,7.07
2023-04-18T17:38:58.444Z,8.70
2023-04-18T17:41:27.600Z,9.15
2023-04-18T17:43:54.492Z,5.70
2023-04-18T17:46:23.522Z,4.22
2023-04-18T17:48:50.431Z,4.25
2023-04-18T17:51:21.498Z,4.18
2023-04-18T17:53:48.442Z,5.85
2023-04-18T17:56:15.377Z,5.82
2023-04-18T17:58:44.495Z,11.93
2023-04-18T18:01:15.695Z,6.40
2023-04-18T18:03:44.858Z,9.25
2023-04-18T18:06:13.166Z,8.98
2023-04-18T18:08:40.305Z,6.37
2023-04-18T18:11:07.861Z,6.50
2023-04-18T18:13:35.886Z,8.18
2023-04-18T18:16:03.693Z,6.30
2023-04-18T18:18:31.562Z,8.90
2023-04-18T18:20:59.137Z,11.70
2023-04-18T18:23:28.129Z,7.10
2023-04-18T18:25:55.054Z,13.23
2023-04-18T18:28:23.991Z,13.62
2023-04-18T18:30:51.001Z,16.83
2023-04-18T18:33:20.068Z,16.05
2023-04-18T18:35:46.953Z,10.10
2023-04-18T18:38:16.298Z,8.18
2023-04-18T18:40:43.315Z,7.32
2023-04-18T18:43:10.270Z,13.18
2023-04-18T18:45:40.544Z,15.35
2023-04-18T18:48:07.572Z,10.77
2023-04-18T18:50:36.752Z,7.87
2023-04-18T18:53:03.715Z,8.20
2023-04-18T18:55:32.797Z,7.78
2023-04-18T18:57:59.704Z,8.55
2023-04-18T19:00:26.879Z,10.48
2023-04-18T19:02:56.181Z,7.55
2023-04-18T19:05:23.486Z,6.80
2023-04-18T19:07:53.830Z,15.00
2023-04-18T19:10:41.953Z,14.27
2023-04-18T19:13:10.575Z,10.10
2023-04-18T19:15:37.531Z,10.23
2023-04-18T19:18:04.686Z,6.60
2023-04-18T19:20:33.031Z,10.05
2023-04-18T19:22:59.901Z,11.30
2023-04-18T19:25:27.832Z,9.32
2023-04-18T19:27:54.757Z,11.10
2023-04-18T19:30:21.702Z,16.92
2023-04-18T19:32:50.682Z,19.67
2023-04-18T19:35:17.715Z,16.63
2023-04-18T19:37:46.609Z,18.12
2023-04-18T19:40:14.437Z,14.15
2023-04-18T19:42:41.341Z,13.50
2023-04-18T19:45:10.720Z,9.27
2023-04-18T19:47:38.206Z,7.18
2023-04-18T19:50:07.938Z,6.72
2023-04-18T19:52:34.834Z,7.93
2023-04-18T19:55:03.884Z,8.48
2023-04-18T19:57:31.040Z,6.43
2023-04-18T19:59:57.890Z,5.90
2023-04-18T20:02:26.926Z,8.75
2023-04-18T20:04:54.054Z,5.37
2023-04-18T20:07:24.219Z,7.15
2023-04-18T20:09:53.314Z,5.60
2023-04-18T20:12:22.236Z,5.20
2023-04-18T20:14:49.239Z,5.67
2023-04-18T20:17:16.251Z,7.87
2023-04-18T20:19:45.347Z,6.97
2023-04-18T20:22:12.271Z,4.72
2023-04-18T20:24:40.872Z,4.15
2023-04-18T20:27:08.240Z,5.00
2023-04-18T20:29:37.200Z,4.20
2023-04-18T20:32:04.268Z,6.43
2023-04-18T20:34:31.713Z,6.85
2023-04-18T20:37:01.923Z,5.97
2023-04-18T20:39:28.894Z,8.00
2023-04-18T20:41:57.881Z,8.02
2023-04-18T20:44:27.085Z,7.50
2023-04-18T20:46:56.064Z,5.82
2023-04-18T20:49:23.082Z,6.97
2023-04-18T20:51:50.071Z,16.00
2023-04-18T20:54:18.292Z,10.38
2023-04-18T20:56:45.220Z,6.07
2023-04-18T20:59:14.127Z,9.10
2023-04-18T21:01:41.485Z,15.67
2023-04-18T21:04:10.567Z,5.35
2023-04-18T21:06:37.634Z,6.00
2023-04-18T21:09:04.588Z,4.72
2023-04-18T21:11:33.335Z,6.03
2023-04-18T21:14:00.368Z,9.30
2023-04-18T21:16:27.360Z,6.85
2023-04-18T21:18:57.359Z,6.03
2023-04-18T21:21:26.637Z,8.85
2023-04-18T21:23:53.536Z,5.55
2023-04-18T21:26:20.565Z,6.95
2023-04-18T21:28:54.221Z,5.32
2023-04-18T21:31:21.215Z,5.07
2023-04-18T21:33:48.804Z,6.22
2023-04-18T21:36:15.767Z,3.80
2023-04-18T21:38:42.683Z,5.07
2023-04-18T21:41:09.602Z,4.53
2023-04-18T21:43:36.534Z,5.65
2023-04-18T21:46:03.478Z,7.90
2023-04-18T21:48:30.392Z,7.07
2023-04-18T21:50:57.318Z,6.60
2023-04-18T21:53:24.299Z,11.45
2023-04-18T21:55:51.299Z,6.97
2023-04-18T21:58:18.216Z,7.50
2023-04-18T22:00:45.199Z,6.78
2023-04-18T22:03:12.428Z,7.53
2023-04-18T22:05:40.283Z,8.45
2023-04-18T22:08:07.605Z,7.25
2023-04-18T22:10:35.437Z,7.90
2023-04-18T22:13:05.472Z,8.90
2023-04-18T22:15:33.086Z,7.68
2023-04-18T22:18:00.250Z,8.80
2023-04-18T22:20:27.262Z,9.95
2023-04-18T22:22:54.804Z,11.00
2023-04-18T22:25:21.772Z,9.35
2023-04-18T22:27:48.732Z,10.70
2023-04-18T22:30:15.973Z,9.02
2023-04-18T22:32:42.964Z,11.90
2023-04-18T22:35:10.204Z,12.50
2023-04-18T22:37:37.207Z,11.15
2023-04-18T22:40:07.488Z,9.93
2023-04-18T22:42:36.148Z,11.38
2023-04-18T22:47:31.402Z,10.63
2023-04-18T22:49:58.319Z,12.30
2023-04-18T22:52:25.746Z,10.63
2023-04-18T22:54:53.333Z,11.32
2023-04-18T22:57:20.251Z,10.48
2023-04-18T22:59:47.245Z,10.65
2023-04-18T23:02:14.407Z,10.57
2023-04-18T23:04:42.512Z,15.25
2023-04-18T23:07:09.602Z,11.88
2023-04-18T23:09:36.679Z,14.10
2023-04-18T23:12:03.834Z,15.13
2023-04-18T23:14:30.958Z,14.13
2023-04-18T23:16:58.045Z,14.55
2023-04-18T23:19:25.014Z,13.57
2023-04-18T23:21:52.008Z,12.25
2023-04-18T23:24:18.971Z,11.27
2023-04-18T23:26:46.348Z,16.67
2023-04-18T23:29:13.379Z,12.30
2023-04-18T23:31:41.173Z,11.85
2023-04-18T23:34:08.161Z,11.73
2023-04-18T23:36:35.152Z,14.98
2023-04-18T23:39:02.403Z,14.10
2023-04-18T23:41:29.425Z,14.05
2023-04-18T23:43:56.377Z,14.32
2023-04-18T23:46:23.449Z,14.25
2023-04-18T23:48:50.524Z,12.00
2023-04-18T23:51:17.424Z,14.07
2023-04-18T23:53:44.385Z,13.18
2023-04-18T23:56:11.231Z,13.23
2023-04-18T23:58:38.197Z,13.80
